sensor_id;sensor_type;location;lat;lon;timestamp;temperature;humidity
38325;DHT22;24126;52.672;13.622;2022-08-30T00:00:33;21.00;70.00
38325;DHT22;24126;52.672;13.622;2022-08-30T00:03:18;21.00;69.90
38325;DHT22;24126;52.672;13.622;2022-08-30T00:05:45;21.00;69.70
38325;DHT22;24126;52.672;13.622;2022-08-30T00:08:13;21.00;69.60
38325;DHT22;24126;52.672;13.622;2022-08-30T00:10:40;21.00;69.20
38325;DHT22;24126;52.672;13.622;2022-08-30T00:13:08;20.90;69.10
38325;DHT22;24126;52.672;13.622;2022-08-30T00:15:37;20.80;69.00
38325;DHT22;24126;52.672;13.622;2022-08-30T00:18:04;20.80;69.00
38325;DHT22;24126;52.672;13.622;2022-08-30T00:20:32;20.70;69.00
38325;DHT22;24126;52.672;13.622;2022-08-30T00:23:00;20.70;69.00
38325;DHT22;24126;52.672;13.622;2022-08-30T00:25:27;20.70;69.20
38325;DHT22;24126;52.672;13.622;2022-08-30T00:27:55;20.60;69.10
38325;DHT22;24126;52.672;13.622;2022-08-30T00:30:22;20.60;69.00
38325;DHT22;24126;52.672;13.622;2022-08-30T00:32:49;20.60;69.00
38325;DHT22;24126;52.672;13.622;2022-08-30T00:35:17;20.60;69.30
38325;DHT22;24126;52.672;13.622;2022-08-30T00:37:45;20.60;69.30
38325;DHT22;24126;52.672;13.622;2022-08-30T00:40:13;20.60;69.30
38325;DHT22;24126;52.672;13.622;2022-08-30T00:42:42;20.60;69.20
38325;DHT22;24126;52.672;13.622;2022-08-30T00:45:20;20.60;69.20
38325;DHT22;24126;52.672;13.622;2022-08-30T00:47:48;20.50;69.10
38325;DHT22;24126;52.672;13.622;2022-08-30T00:50:16;20.50;69.10
38325;DHT22;24126;52.672;13.622;2022-08-30T00:52:45;20.50;69.10
38325;DHT22;24126;52.672;13.622;2022-08-30T00:55:14;20.40;69.00
38325;DHT22;24126;52.672;13.622;2022-08-30T00:57:43;20.40;69.10
38325;DHT22;24126;52.672;13.622;2022-08-30T01:00:11;20.30;69.10
38325;DHT22;24126;52.672;13.622;2022-08-30T01:02:39;20.30;69.30
38325;DHT22;24126;52.672;13.622;2022-08-30T01:05:07;20.30;69.30
38325;DHT22;24126;52.672;13.622;2022-08-30T01:07:36;20.20;69.30
38325;DHT22;24126;52.672;13.622;2022-08-30T01:10:04;20.20;69.20
38325;DHT22;24126;52.672;13.622;2022-08-30T01:12:31;20.10;69.40
38325;DHT22;24126;52.672;13.622;2022-08-30T01:14:58;20.10;69.40
38325;DHT22;24126;52.672;13.622;2022-08-30T01:17:26;20.10;69.50
38325;DHT22;24126;52.672;13.622;2022-08-30T01:19:54;20.00;69.40
38325;DHT22;24126;52.672;13.622;2022-08-30T01:24:53;20.00;69.60
38325;DHT22;24126;52.672;13.622;2022-08-30T01:27:22;20.00;69.60
38325;DHT22;24126;52.672;13.622;2022-08-30T01:29:50;20.00;69.50
38325;DHT22;24126;52.672;13.622;2022-08-30T01:32:21;20.00;69.40
38325;DHT22;24126;52.672;13.622;2022-08-30T01:34:49;19.90;69.20
38325;DHT22;24126;52.672;13.622;2022-08-30T01:37:16;19.90;69.50
38325;DHT22;24126;52.672;13.622;2022-08-30T01:39:45;19.80;69.50
38325;DHT22;24126;52.672;13.622;2022-08-30T01:42:13;19.90;69.40
38325;DHT22;24126;52.672;13.622;2022-08-30T01:44:42;19.80;69.30
38325;DHT22;24126;52.672;13.622;2022-08-30T01:47:10;19.80;69.40
38325;DHT22;24126;52.672;13.622;2022-08-30T01:49:37;19.80;69.30
38325;DHT22;24126;52.672;13.622;2022-08-30T01:52:05;19.80;69.10
38325;DHT22;24126;52.672;13.622;2022-08-30T01:54:34;19.80;69.20
38325;DHT22;24126;52.672;13.622;2022-08-30T01:57:02;19.80;69.30
38325;DHT22;24126;52.672;13.622;2022-08-30T01:59:29;19.70;69.20
38325;DHT22;24126;52.672;13.622;2022-08-30T02:01:56;19.80;69.40
38325;DHT22;24126;52.672;13.622;2022-08-30T02:04:23;19.80;69.40
38325;DHT22;24126;52.672;13.622;2022-08-30T02:06:51;19.80;69.30
38325;DHT22;24126;52.672;13.622;2022-08-30T02:09:19;19.70;69.20
38325;DHT22;24126;52.672;13.622;2022-08-30T02:11:46;19.80;69.30
38325;DHT22;24126;52.672;13.622;2022-08-30T02:14:14;19.70;69.20
38325;DHT22;24126;52.672;13.622;2022-08-30T02:16:41;19.70;69.20
38325;DHT22;24126;52.672;13.622;2022-08-30T02:19:08;19.70;69.20
38325;DHT22;24126;52.672;13.622;2022-08-30T02:21:36;19.70;69.30
38325;DHT22;24126;52.672;13.622;2022-08-30T02:24:03;19.70;69.60
38325;DHT22;24126;52.672;13.622;2022-08-30T02:26:31;19.70;69.70
38325;DHT22;24126;52.672;13.622;2022-08-30T02:28:58;19.60;69.70
38325;DHT22;24126;52.672;13.622;2022-08-30T02:31:26;19.70;69.60
38325;DHT22;24126;52.672;13.622;2022-08-30T02:33:53;19.70;69.80
38325;DHT22;24126;52.672;13.622;2022-08-30T02:36:20;19.70;69.90
38325;DHT22;24126;52.672;13.622;2022-08-30T02:38:48;19.70;70.00
38325;DHT22;24126;52.672;13.622;2022-08-30T02:41:15;19.70;70.00
38325;DHT22;24126;52.672;13.622;2022-08-30T02:43:43;19.70;70.00
38325;DHT22;24126;52.672;13.622;2022-08-30T02:46:10;19.70;70.00
38325;DHT22;24126;52.672;13.622;2022-08-30T02:48:38;19.70;70.00
38325;DHT22;24126;52.672;13.622;2022-08-30T02:51:06;19.70;70.10
38325;DHT22;24126;52.672;13.622;2022-08-30T02:53:34;19.60;70.20
38325;DHT22;24126;52.672;13.622;2022-08-30T02:56:01;19.70;70.50
38325;DHT22;24126;52.672;13.622;2022-08-30T02:58:29;19.60;70.50
38325;DHT22;24126;52.672;13.622;2022-08-30T03:00:56;19.60;70.60
38325;DHT22;24126;52.672;13.622;2022-08-30T03:03:23;19.60;70.80
38325;DHT22;24126;52.672;13.622;2022-08-30T03:05:51;19.60;70.90
38325;DHT22;24126;52.672;13.622;2022-08-30T03:08:18;19.60;71.00
38325;DHT22;24126;52.672;13.622;2022-08-30T03:10:45;19.60;70.90
38325;DHT22;24126;52.672;13.622;2022-08-30T03:13:12;19.60;71.00
38325;DHT22;24126;52.672;13.622;2022-08-30T03:15:40;19.60;71.00
38325;DHT22;24126;52.672;13.622;2022-08-30T03:18:07;19.70;71.00
38325;DHT22;24126;52.672;13.622;2022-08-30T03:20:35;19.60;70.90
38325;DHT22;24126;52.672;13.622;2022-08-30T03:23:03;19.70;71.00
38325;DHT22;24126;52.672;13.622;2022-08-30T03:25:30;19.70;71.00
38325;DHT22;24126;52.672;13.622;2022-08-30T03:27:58;19.70;71.00
38325;DHT22;24126;52.672;13.622;2022-08-30T03:30:26;19.70;71.10
38325;DHT22;24126;52.672;13.622;2022-08-30T03:32:53;19.80;71.20
38325;DHT22;24126;52.672;13.622;2022-08-30T03:35:20;19.80;71.20
38325;DHT22;24126;52.672;13.622;2022-08-30T03:37:47;19.80;71.20
38325;DHT22;24126;52.672;13.622;2022-08-30T03:40:16;19.80;71.30
38325;DHT22;24126;52.672;13.622;2022-08-30T03:42:43;19.80;71.40
38325;DHT22;24126;52.672;13.622;2022-08-30T03:45:11;19.80;71.50
38325;DHT22;24126;52.672;13.622;2022-08-30T03:47:39;19.80;71.50
38325;DHT22;24126;52.672;13.622;2022-08-30T03:50:07;19.80;71.50
38325;DHT22;24126;52.672;13.622;2022-08-30T03:52:34;19.80;71.60
38325;DHT22;24126;52.672;13.622;2022-08-30T03:55:02;19.80;71.70
38325;DHT22;24126;52.672;13.622;2022-08-30T03:57:30;19.80;71.50
38325;DHT22;24126;52.672;13.622;2022-08-30T03:59:57;19.80;71.50
38325;DHT22;24126;52.672;13.622;2022-08-30T04:02:24;19.80;71.70
38325;DHT22;24126;52.672;13.622;2022-08-30T04:04:52;19.80;71.70
38325;DHT22;24126;52.672;13.622;2022-08-30T04:07:19;19.80;71.80
38325;DHT22;24126;52.672;13.622;2022-08-30T04:09:46;19.80;71.80
38325;DHT22;24126;52.672;13.622;2022-08-30T04:12:14;19.80;72.00
38325;DHT22;24126;52.672;13.622;2022-08-30T04:14:41;19.80;72.00
38325;DHT22;24126;52.672;13.622;2022-08-30T04:17:08;19.80;72.00
38325;DHT22;24126;52.672;13.622;2022-08-30T04:19:36;19.80;72.00
38325;DHT22;24126;52.672;13.622;2022-08-30T04:22:03;19.80;72.10
38325;DHT22;24126;52.672;13.622;2022-08-30T04:24:30;19.90;72.20
38325;DHT22;24126;52.672;13.622;2022-08-30T04:26:59;19.90;72.20
38325;DHT22;24126;52.672;13.622;2022-08-30T04:29:26;19.90;72.10
38325;DHT22;24126;52.672;13.622;2022-08-30T04:31:53;19.90;72.10
38325;DHT22;24126;52.672;13.622;2022-08-30T04:34:21;19.90;72.10
38325;DHT22;24126;52.672;13.622;2022-08-30T04:36:48;19.90;72.10
38325;DHT22;24126;52.672;13.622;2022-08-30T04:39:19;20.00;72.30
38325;DHT22;24126;52.672;13.622;2022-08-30T04:41:46;20.00;72.20
38325;DHT22;24126;52.672;13.622;2022-08-30T04:44:13;20.00;72.30
38325;DHT22;24126;52.672;13.622;2022-08-30T04:46:41;20.10;72.20
38325;DHT22;24126;52.672;13.622;2022-08-30T04:49:08;20.10;72.30
38325;DHT22;24126;52.672;13.622;2022-08-30T04:51:35;20.20;72.30
38325;DHT22;24126;52.672;13.622;2022-08-30T04:54:03;20.20;72.50
38325;DHT22;24126;52.672;13.622;2022-08-30T04:56:30;20.20;72.50
38325;DHT22;24126;52.672;13.622;2022-08-30T04:58:57;20.30;72.80
38325;DHT22;24126;52.672;13.622;2022-08-30T05:01:26;20.30;73.00
38325;DHT22;24126;52.672;13.622;2022-08-30T05:03:54;20.30;73.00
38325;DHT22;24126;52.672;13.622;2022-08-30T05:06:22;20.40;73.10
38325;DHT22;24126;52.672;13.622;2022-08-30T05:08:50;20.40;73.30
38325;DHT22;24126;52.672;13.622;2022-08-30T05:11:18;20.50;73.20
38325;DHT22;24126;52.672;13.622;2022-08-30T05:13:46;20.50;73.20
38325;DHT22;24126;52.672;13.622;2022-08-30T05:16:14;20.60;73.30
38325;DHT22;24126;52.672;13.622;2022-08-30T05:18:44;20.70;73.40
38325;DHT22;24126;52.672;13.622;2022-08-30T05:21:13;20.70;73.40
38325;DHT22;24126;52.672;13.622;2022-08-30T05:23:41;20.70;73.50
38325;DHT22;24126;52.672;13.622;2022-08-30T05:26:10;20.70;73.40
38325;DHT22;24126;52.672;13.622;2022-08-30T05:28:38;20.80;73.50
38325;DHT22;24126;52.672;13.622;2022-08-30T05:31:16;20.80;73.60
38325;DHT22;24126;52.672;13.622;2022-08-30T05:33:44;20.80;73.60
38325;DHT22;24126;52.672;13.622;2022-08-30T05:36:12;20.90;73.80
38325;DHT22;24126;52.672;13.622;2022-08-30T05:38:39;21.00;73.90
38325;DHT22;24126;52.672;13.622;2022-08-30T05:41:07;21.00;73.90
38325;DHT22;24126;52.672;13.622;2022-08-30T05:43:34;21.00;73.90
38325;DHT22;24126;52.672;13.622;2022-08-30T05:46:03;21.10;74.00
38325;DHT22;24126;52.672;13.622;2022-08-30T05:48:31;21.10;74.10
38325;DHT22;24126;52.672;13.622;2022-08-30T05:53:36;21.20;74.10
38325;DHT22;24126;52.672;13.622;2022-08-30T05:56:05;21.20;74.20
38325;DHT22;24126;52.672;13.622;2022-08-30T05:58:33;21.20;74.10
38325;DHT22;24126;52.672;13.622;2022-08-30T06:01:00;21.30;74.20
38325;DHT22;24126;52.672;13.622;2022-08-30T06:03:27;21.30;74.00
38325;DHT22;24126;52.672;13.622;2022-08-30T06:05:58;21.40;74.20
38325;DHT22;24126;52.672;13.622;2022-08-30T06:08:25;21.40;74.20
38325;DHT22;24126;52.672;13.622;2022-08-30T06:10:52;21.40;74.10
38325;DHT22;24126;52.672;13.622;2022-08-30T06:13:20;21.40;74.20
38325;DHT22;24126;52.672;13.622;2022-08-30T06:15:47;21.50;74.20
38325;DHT22;24126;52.672;13.622;2022-08-30T06:18:15;21.50;74.20
38325;DHT22;24126;52.672;13.622;2022-08-30T06:20:43;21.50;74.10
38325;DHT22;24126;52.672;13.622;2022-08-30T06:23:12;21.60;74.10
38325;DHT22;24126;52.672;13.622;2022-08-30T06:25:42;21.60;74.10
38325;DHT22;24126;52.672;13.622;2022-08-30T06:28:10;21.60;74.20
38325;DHT22;24126;52.672;13.622;2022-08-30T06:30:38;21.70;74.10
38325;DHT22;24126;52.672;13.622;2022-08-30T06:33:06;21.70;74.10
38325;DHT22;24126;52.672;13.622;2022-08-30T06:35:33;21.80;74.10
38325;DHT22;24126;52.672;13.622;2022-08-30T06:38:00;21.80;74.00
38325;DHT22;24126;52.672;13.622;2022-08-30T06:40:28;21.90;74.00
38325;DHT22;24126;52.672;13.622;2022-08-30T06:42:55;21.90;74.00
38325;DHT22;24126;52.672;13.622;2022-08-30T06:45:22;21.90;74.00
38325;DHT22;24126;52.672;13.622;2022-08-30T06:47:50;21.90;73.90
38325;DHT22;24126;52.672;13.622;2022-08-30T06:50:17;22.00;73.90
38325;DHT22;24126;52.672;13.622;2022-08-30T06:52:45;21.90;73.90
38325;DHT22;24126;52.672;13.622;2022-08-30T06:55:14;22.00;74.00
38325;DHT22;24126;52.672;13.622;2022-08-30T06:57:41;22.00;73.90
38325;DHT22;24126;52.672;13.622;2022-08-30T07:00:10;22.10;73.70
38325;DHT22;24126;52.672;13.622;2022-08-30T07:02:37;22.10;73.50
38325;DHT22;24126;52.672;13.622;2022-08-30T07:05:05;22.20;73.40
38325;DHT22;24126;52.672;13.622;2022-08-30T07:07:33;22.20;73.30
38325;DHT22;24126;52.672;13.622;2022-08-30T07:10:01;22.20;73.30
38325;DHT22;24126;52.672;13.622;2022-08-30T07:12:29;22.20;73.00
38325;DHT22;24126;52.672;13.622;2022-08-30T07:14:56;22.30;72.80
38325;DHT22;24126;52.672;13.622;2022-08-30T07:17:23;22.20;72.90
38325;DHT22;24126;52.672;13.622;2022-08-30T07:20:08;22.20;72.90
38325;DHT22;24126;52.672;13.622;2022-08-30T07:22:36;22.20;73.10
38325;DHT22;24126;52.672;13.622;2022-08-30T07:25:03;22.30;73.00
38325;DHT22;24126;52.672;13.622;2022-08-30T07:27:30;22.30;72.80
38325;DHT22;24126;52.672;13.622;2022-08-30T07:29:58;22.30;72.70
38325;DHT22;24126;52.672;13.622;2022-08-30T07:32:27;22.40;72.60
38325;DHT22;24126;52.672;13.622;2022-08-30T07:34:54;22.40;72.20
38325;DHT22;24126;52.672;13.622;2022-08-30T07:37:22;22.40;72.30
38325;DHT22;24126;52.672;13.622;2022-08-30T07:39:50;22.40;71.40
38325;DHT22;24126;52.672;13.622;2022-08-30T07:42:17;22.40;71.30
38325;DHT22;24126;52.672;13.622;2022-08-30T07:44:44;22.40;71.80
38325;DHT22;24126;52.672;13.622;2022-08-30T07:47:11;22.40;71.90
38325;DHT22;24126;52.672;13.622;2022-08-30T07:49:39;22.50;71.60
38325;DHT22;24126;52.672;13.622;2022-08-30T07:52:06;22.50;71.20
38325;DHT22;24126;52.672;13.622;2022-08-30T07:54:33;22.60;71.20
38325;DHT22;24126;52.672;13.622;2022-08-30T07:57:00;22.60;71.00
38325;DHT22;24126;52.672;13.622;2022-08-30T07:59:28;22.70;71.00
38325;DHT22;24126;52.672;13.622;2022-08-30T08:01:55;22.70;70.90
38325;DHT22;24126;52.672;13.622;2022-08-30T08:04:22;22.80;70.70
38325;DHT22;24126;52.672;13.622;2022-08-30T08:06:49;22.90;70.40
38325;DHT22;24126;52.672;13.622;2022-08-30T08:09:17;22.90;70.00
38325;DHT22;24126;52.672;13.622;2022-08-30T08:11:44;22.90;69.90
38325;DHT22;24126;52.672;13.622;2022-08-30T08:14:11;22.90;70.00
38325;DHT22;24126;52.672;13.622;2022-08-30T08:16:39;22.90;70.10
38325;DHT22;24126;52.672;13.622;2022-08-30T08:19:07;22.90;69.90
38325;DHT22;24126;52.672;13.622;2022-08-30T08:21:34;23.00;69.90
38325;DHT22;24126;52.672;13.622;2022-08-30T08:24:02;23.00;69.60
38325;DHT22;24126;52.672;13.622;2022-08-30T08:26:29;23.10;69.50
38325;DHT22;24126;52.672;13.622;2022-08-30T08:28:56;23.10;69.30
38325;DHT22;24126;52.672;13.622;2022-08-30T08:31:24;23.20;68.80
38325;DHT22;24126;52.672;13.622;2022-08-30T08:33:53;23.20;68.80
38325;DHT22;24126;52.672;13.622;2022-08-30T08:36:21;23.20;68.60
38325;DHT22;24126;52.672;13.622;2022-08-30T08:38:48;23.20;68.50
38325;DHT22;24126;52.672;13.622;2022-08-30T08:46:54;23.40;68.10
38325;DHT22;24126;52.672;13.622;2022-08-30T08:49:22;23.40;68.10
38325;DHT22;24126;52.672;13.622;2022-08-30T08:51:50;23.40;68.00
38325;DHT22;24126;52.672;13.622;2022-08-30T08:54:38;23.40;67.80
38325;DHT22;24126;52.672;13.622;2022-08-30T08:57:08;23.40;67.80
38325;DHT22;24126;52.672;13.622;2022-08-30T08:59:35;23.50;67.80
38325;DHT22;24126;52.672;13.622;2022-08-30T09:02:10;23.50;67.70
38325;DHT22;24126;52.672;13.622;2022-08-30T09:04:43;23.50;67.50
38325;DHT22;24126;52.672;13.622;2022-08-30T09:07:13;23.50;67.10
38325;DHT22;24126;52.672;13.622;2022-08-30T09:09:45;23.50;67.20
38325;DHT22;24126;52.672;13.622;2022-08-30T09:12:12;23.50;67.30
38325;DHT22;24126;52.672;13.622;2022-08-30T09:14:41;23.50;66.50
38325;DHT22;24126;52.672;13.622;2022-08-30T09:17:10;23.50;66.00
38325;DHT22;24126;52.672;13.622;2022-08-30T09:19:53;23.50;66.00
38325;DHT22;24126;52.672;13.622;2022-08-30T09:24:53;23.50;65.30
38325;DHT22;24126;52.672;13.622;2022-08-30T09:27:28;23.40;65.00
38325;DHT22;24126;52.672;13.622;2022-08-30T09:30:01;23.40;65.00
38325;DHT22;24126;52.672;13.622;2022-08-30T09:32:34;23.50;64.80
38325;DHT22;24126;52.672;13.622;2022-08-30T09:35:02;23.60;64.40
38325;DHT22;24126;52.672;13.622;2022-08-30T09:37:31;23.50;63.90
38325;DHT22;24126;52.672;13.622;2022-08-30T09:39:59;23.50;64.00
38325;DHT22;24126;52.672;13.622;2022-08-30T09:42:28;23.60;63.90
38325;DHT22;24126;52.672;13.622;2022-08-30T09:44:56;23.70;64.20
38325;DHT22;24126;52.672;13.622;2022-08-30T09:47:36;23.80;64.50
38325;DHT22;24126;52.672;13.622;2022-08-30T09:52:44;24.10;64.00
38325;DHT22;24126;52.672;13.622;2022-08-30T09:55:17;24.20;63.60
38325;DHT22;24126;52.672;13.622;2022-08-30T10:00:35;24.30;61.80
38325;DHT22;24126;52.672;13.622;2022-08-30T10:11:31;24.40;61.10
38325;DHT22;24126;52.672;13.622;2022-08-30T10:22:08;24.70;60.80
38325;DHT22;24126;52.672;13.622;2022-08-30T10:24:37;24.80;60.40
38325;DHT22;24126;52.672;13.622;2022-08-30T10:27:07;24.90;59.90
38325;DHT22;24126;52.672;13.622;2022-08-30T10:29:42;25.00;59.90
38325;DHT22;24126;52.672;13.622;2022-08-30T10:32:15;25.10;59.90
38325;DHT22;24126;52.672;13.622;2022-08-30T10:34:55;25.20;59.80
38325;DHT22;24126;52.672;13.622;2022-08-30T10:37:24;25.30;59.10
38325;DHT22;24126;52.672;13.622;2022-08-30T10:39:53;25.40;59.40
38325;DHT22;24126;52.672;13.622;2022-08-30T10:42:24;25.60;59.50
38325;DHT22;24126;52.672;13.622;2022-08-30T10:44:58;25.70;59.20
38325;DHT22;24126;52.672;13.622;2022-08-30T10:47:50;25.80;59.00
38325;DHT22;24126;52.672;13.622;2022-08-30T10:50:17;25.90;58.60
38325;DHT22;24126;52.672;13.622;2022-08-30T10:52:49;26.10;57.50
38325;DHT22;24126;52.672;13.622;2022-08-30T10:55:20;26.20;57.00
38325;DHT22;24126;52.672;13.622;2022-08-30T10:57:49;26.50;56.90
38325;DHT22;24126;52.672;13.622;2022-08-30T11:00:24;26.70;56.30
38325;DHT22;24126;52.672;13.622;2022-08-30T11:13:28;27.00;54.90
38325;DHT22;24126;52.672;13.622;2022-08-30T11:18:27;26.90;54.40
38325;DHT22;24126;52.672;13.622;2022-08-30T11:21:14;26.90;55.10
38325;DHT22;24126;52.672;13.622;2022-08-30T11:23:56;26.80;55.00
38325;DHT22;24126;52.672;13.622;2022-08-30T11:31:52;26.90;54.60
38325;DHT22;24126;52.672;13.622;2022-08-30T11:37:06;26.90;53.80
38325;DHT22;24126;52.672;13.622;2022-08-30T11:42:27;27.00;54.60
38325;DHT22;24126;52.672;13.622;2022-08-30T11:45:41;27.00;54.70
38325;DHT22;24126;52.672;13.622;2022-08-30T11:47:46;27.10;54.00
38325;DHT22;24126;52.672;13.622;2022-08-30T11:50:18;27.20;54.00
38325;DHT22;24126;52.672;13.622;2022-08-30T11:52:49;27.20;53.30
38325;DHT22;24126;52.672;13.622;2022-08-30T11:55:26;27.40;52.40
38325;DHT22;24126;52.672;13.622;2022-08-30T11:57:57;27.50;52.30
38325;DHT22;24126;52.672;13.622;2022-08-30T12:00:28;27.40;51.60
38325;DHT22;24126;52.672;13.622;2022-08-30T12:02:59;27.40;52.00
38325;DHT22;24126;52.672;13.622;2022-08-30T12:08:04;27.40;51.20
38325;DHT22;24126;52.672;13.622;2022-08-30T12:16:02;27.20;50.50
38325;DHT22;24126;52.672;13.622;2022-08-30T12:21:04;26.90;51.40
38325;DHT22;24126;52.672;13.622;2022-08-30T12:23:45;26.90;51.50
38325;DHT22;24126;52.672;13.622;2022-08-30T12:28:42;26.90;52.00
38325;DHT22;24126;52.672;13.622;2022-08-30T12:31:12;27.00;52.60
38325;DHT22;24126;52.672;13.622;2022-08-30T12:33:42;27.20;52.70
38325;DHT22;24126;52.672;13.622;2022-08-30T12:36:13;27.30;52.10
38325;DHT22;24126;52.672;13.622;2022-08-30T12:38:41;27.40;52.20
38325;DHT22;24126;52.672;13.622;2022-08-30T12:41:15;27.40;52.40
38325;DHT22;24126;52.672;13.622;2022-08-30T12:43:47;27.50;52.50
38325;DHT22;24126;52.672;13.622;2022-08-30T12:46:15;27.50;52.40
38325;DHT22;24126;52.672;13.622;2022-08-30T12:48:43;27.50;52.50
38325;DHT22;24126;52.672;13.622;2022-08-30T12:51:25;27.50;52.70
38325;DHT22;24126;52.672;13.622;2022-08-30T12:53:52;27.40;52.30
38325;DHT22;24126;52.672;13.622;2022-08-30T12:56:20;27.40;52.50
38325;DHT22;24126;52.672;13.622;2022-08-30T12:58:49;27.30;52.80
38325;DHT22;24126;52.672;13.622;2022-08-30T13:01:30;27.30;53.20
38325;DHT22;24126;52.672;13.622;2022-08-30T13:04:00;27.30;53.20
38325;DHT22;24126;52.672;13.622;2022-08-30T13:06:39;27.20;52.90
38325;DHT22;24126;52.672;13.622;2022-08-30T13:09:07;27.20;53.20
38325;DHT22;24126;52.672;13.622;2022-08-30T13:11:34;27.20;53.00
38325;DHT22;24126;52.672;13.622;2022-08-30T13:14:18;27.20;52.80
38325;DHT22;24126;52.672;13.622;2022-08-30T13:16:46;27.30;52.60
38325;DHT22;24126;52.672;13.622;2022-08-30T13:21:51;27.20;53.00
38325;DHT22;24126;52.672;13.622;2022-08-30T13:24:18;27.10;53.30
38325;DHT22;24126;52.672;13.622;2022-08-30T13:26:46;26.90;53.50
38325;DHT22;24126;52.672;13.622;2022-08-30T13:29:14;26.80;53.70
38325;DHT22;24126;52.672;13.622;2022-08-30T13:31:42;26.70;53.80
38325;DHT22;24126;52.672;13.622;2022-08-30T13:34:10;26.50;54.30
38325;DHT22;24126;52.672;13.622;2022-08-30T13:37:12;26.50;54.60
38325;DHT22;24126;52.672;13.622;2022-08-30T13:39:32;26.40;54.80
38325;DHT22;24126;52.672;13.622;2022-08-30T13:41:59;26.30;54.60
38325;DHT22;24126;52.672;13.622;2022-08-30T13:44:27;26.30;54.70
38325;DHT22;24126;52.672;13.622;2022-08-30T13:46:54;26.20;54.90
38325;DHT22;24126;52.672;13.622;2022-08-30T13:49:24;26.20;54.90
38325;DHT22;24126;52.672;13.622;2022-08-30T13:51:51;26.10;54.90
38325;DHT22;24126;52.672;13.622;2022-08-30T13:54:19;26.20;55.20
38325;DHT22;24126;52.672;13.622;2022-08-30T13:56:48;26.10;54.80
38325;DHT22;24126;52.672;13.622;2022-08-30T13:59:15;26.10;54.70
38325;DHT22;24126;52.672;13.622;2022-08-30T14:01:43;26.00;54.90
38325;DHT22;24126;52.672;13.622;2022-08-30T14:04:10;26.00;55.00
38325;DHT22;24126;52.672;13.622;2022-08-30T14:06:37;26.00;54.90
38325;DHT22;24126;52.672;13.622;2022-08-30T14:09:04;26.00;54.90
38325;DHT22;24126;52.672;13.622;2022-08-30T14:11:33;26.00;54.90
38325;DHT22;24126;52.672;13.622;2022-08-30T14:14:00;26.00;55.00
38325;DHT22;24126;52.672;13.622;2022-08-30T14:16:28;26.00;54.70
38325;DHT22;24126;52.672;13.622;2022-08-30T14:18:56;26.00;54.90
38325;DHT22;24126;52.672;13.622;2022-08-30T14:21:25;25.90;54.90
38325;DHT22;24126;52.672;13.622;2022-08-30T14:23:53;25.90;55.00
38325;DHT22;24126;52.672;13.622;2022-08-30T14:26:26;25.90;55.40
38325;DHT22;24126;52.672;13.622;2022-08-30T14:28:54;25.90;55.40
38325;DHT22;24126;52.672;13.622;2022-08-30T14:31:22;25.90;55.40
38325;DHT22;24126;52.672;13.622;2022-08-30T14:33:50;25.90;55.20
38325;DHT22;24126;52.672;13.622;2022-08-30T14:36:17;25.80;55.70
38325;DHT22;24126;52.672;13.622;2022-08-30T14:38:44;25.80;55.10
38325;DHT22;24126;52.672;13.622;2022-08-30T14:41:12;25.80;55.20
38325;DHT22;24126;52.672;13.622;2022-08-30T14:43:40;25.80;55.30
38325;DHT22;24126;52.672;13.622;2022-08-30T14:46:08;25.80;55.40
38325;DHT22;24126;52.672;13.622;2022-08-30T14:48:35;25.80;55.10
38325;DHT22;24126;52.672;13.622;2022-08-30T14:51:10;25.70;55.00
38325;DHT22;24126;52.672;13.622;2022-08-30T14:53:38;25.80;55.20
38325;DHT22;24126;52.672;13.622;2022-08-30T14:56:15;25.80;54.90
38325;DHT22;24126;52.672;13.622;2022-08-30T14:58:43;25.80;54.80
38325;DHT22;24126;52.672;13.622;2022-08-30T15:01:10;25.80;54.90
38325;DHT22;24126;52.672;13.622;2022-08-30T15:03:38;25.80;54.80
38325;DHT22;24126;52.672;13.622;2022-08-30T15:06:05;25.80;54.40
38325;DHT22;24126;52.672;13.622;2022-08-30T15:08:34;25.80;54.00
38325;DHT22;24126;52.672;13.622;2022-08-30T15:11:11;25.80;54.40
38325;DHT22;24126;52.672;13.622;2022-08-30T15:13:39;25.80;54.10
38325;DHT22;24126;52.672;13.622;2022-08-30T15:16:10;25.70;54.40
38325;DHT22;24126;52.672;13.622;2022-08-30T15:18:37;25.70;54.40
38325;DHT22;24126;52.672;13.622;2022-08-30T15:21:05;25.70;54.70
38325;DHT22;24126;52.672;13.622;2022-08-30T15:23:32;25.80;54.80
38325;DHT22;24126;52.672;13.622;2022-08-30T15:25:59;25.80;54.50
38325;DHT22;24126;52.672;13.622;2022-08-30T15:28:27;25.80;54.40
38325;DHT22;24126;52.672;13.622;2022-08-30T15:30:54;25.80;54.00
38325;DHT22;24126;52.672;13.622;2022-08-30T15:33:22;25.80;54.00
38325;DHT22;24126;52.672;13.622;2022-08-30T15:35:50;25.70;54.10
38325;DHT22;24126;52.672;13.622;2022-08-30T15:38:18;25.70;54.20
38325;DHT22;24126;52.672;13.622;2022-08-30T15:40:47;25.70;54.10
38325;DHT22;24126;52.672;13.622;2022-08-30T15:43:15;25.70;53.90
38325;DHT22;24126;52.672;13.622;2022-08-30T15:45:42;25.70;53.80
38325;DHT22;24126;52.672;13.622;2022-08-30T15:48:09;25.80;53.90
38325;DHT22;24126;52.672;13.622;2022-08-30T15:50:37;25.70;53.80
38325;DHT22;24126;52.672;13.622;2022-08-30T15:53:04;25.70;53.90
38325;DHT22;24126;52.672;13.622;2022-08-30T15:55:31;25.80;53.90
38325;DHT22;24126;52.672;13.622;2022-08-30T15:57:59;25.80;53.50
38325;DHT22;24126;52.672;13.622;2022-08-30T16:00:26;25.80;53.70
38325;DHT22;24126;52.672;13.622;2022-08-30T16:02:54;25.80;53.30
38325;DHT22;24126;52.672;13.622;2022-08-30T16:05:21;25.70;53.50
38325;DHT22;24126;52.672;13.622;2022-08-30T16:07:49;25.70;53.00
38325;DHT22;24126;52.672;13.622;2022-08-30T16:10:17;25.70;52.70
38325;DHT22;24126;52.672;13.622;2022-08-30T16:12:45;25.60;52.50
38325;DHT22;24126;52.672;13.622;2022-08-30T16:15:12;25.50;52.60
38325;DHT22;24126;52.672;13.622;2022-08-30T16:17:39;25.50;52.60
38325;DHT22;24126;52.672;13.622;2022-08-30T16:20:07;25.50;52.70
38325;DHT22;24126;52.672;13.622;2022-08-30T16:22:34;25.50;52.50
38325;DHT22;24126;52.672;13.622;2022-08-30T16:25:02;25.40;52.50
38325;DHT22;24126;52.672;13.622;2022-08-30T16:27:30;25.40;52.30
38325;DHT22;24126;52.672;13.622;2022-08-30T16:29:57;25.40;52.50
38325;DHT22;24126;52.672;13.622;2022-08-30T16:32:25;25.30;52.70
38325;DHT22;24126;52.672;13.622;2022-08-30T16:34:53;25.30;52.80
38325;DHT22;24126;52.672;13.622;2022-08-30T16:37:20;25.20;53.00
38325;DHT22;24126;52.672;13.622;2022-08-30T16:39:47;25.20;52.90